createdAt,value
2017-10-30T00:00:27.259Z,89.12
2017-10-30T00:06:31.738Z,88.95
2017-10-30T00:12:36.085Z,88.93
2017-10-30T00:18:39.597Z,88.78
2017-10-30T00:24:43.070Z,89.36
2017-10-30T00:30:47.338Z,88.13
2017-10-30T00:36:50.904Z,87.80
2017-10-30T00:42:54.439Z,87.14
2017-10-30T00:48:57.983Z,88.03
2017-10-30T00:55:01.442Z,87.75
2017-10-30T01:01:04.949Z,87.74
2017-10-30T01:07:08.447Z,88.37
2017-10-30T01:13:11.921Z,88.80
2017-10-30T01:19:15.991Z,88.03
2017-10-30T01:25:19.587Z,87.66
2017-10-30T01:31:23.040Z,87.65
2017-10-30T01:37:26.549Z,87.43
2017-10-30T01:43:30.057Z,87.19
2017-10-30T01:49:33.547Z,86.38
2017-10-30T01:55:37.196Z,86.57
2017-10-30T02:01:40.671Z,86.90
2017-10-30T02:07:44.516Z,86.48
2017-10-30T02:13:48.138Z,86.57
2017-10-30T02:19:51.670Z,85.97
2017-10-30T02:25:55.274Z,85.82
2017-10-30T02:31:58.748Z,85.74
2017-10-30T02:38:02.262Z,86.00
2017-10-30T02:44:05.700Z,85.70
2017-10-30T02:50:10.006Z,85.85
2017-10-30T02:56:13.627Z,85.24
2017-10-30T03:02:17.369Z,85.34
2017-10-30T03:08:20.841Z,85.32
2017-10-30T03:14:24.345Z,85.15
2017-10-30T03:20:27.816Z,84.74
2017-10-30T03:26:31.271Z,84.94
2017-10-30T03:32:34.750Z,85.16
2017-10-30T03:38:38.225Z,84.96
2017-10-30T03:44:42.529Z,85.49
2017-10-30T03:50:46.336Z,86.09
2017-10-30T03:56:50.155Z,86.13
2017-10-30T04:02:53.741Z,85.85
2017-10-30T04:08:58.070Z,85.62
2017-10-30T04:15:01.532Z,85.57
2017-10-30T04:21:05.089Z,85.29
2017-10-30T04:27:08.623Z,84.70
2017-10-30T04:33:12.090Z,84.74
2017-10-30T04:39:16.199Z,84.58
2017-10-30T04:45:19.783Z,84.56
2017-10-30T04:51:23.459Z,84.50
2017-10-30T04:57:27.003Z,84.40
2017-10-30T05:03:30.670Z,84.70
2017-10-30T05:09:34.904Z,86.11
2017-10-30T05:15:38.364Z,86.19
2017-10-30T05:21:41.836Z,85.97
2017-10-30T05:27:47.054Z,86.27
2017-10-30T05:33:50.873Z,86.71
2017-10-30T05:39:54.464Z,86.69
2017-10-30T05:45:58.181Z,86.81
2017-10-30T05:52:01.674Z,86.74
2017-10-30T05:58:05.147Z,86.85
2017-10-30T06:04:08.652Z,86.81
2017-10-30T06:10:12.236Z,86.93
2017-10-30T06:16:16.670Z,87.08
2017-10-30T06:22:20.378Z,87.15
2017-10-30T06:28:25.026Z,87.25
2017-10-30T06:34:28.654Z,87.35
2017-10-30T06:40:32.188Z,87.49
2017-10-30T06:46:36.606Z,87.61
2017-10-30T06:52:40.188Z,85.99
2017-10-30T06:58:44.088Z,86.28
2017-10-30T07:04:48.432Z,86.75
2017-10-30T07:10:52.242Z,86.67
2017-10-30T07:16:55.717Z,87.17
2017-10-30T07:22:59.189Z,85.39
2017-10-30T07:29:02.693Z,85.78
2017-10-30T07:35:06.258Z,85.73
2017-10-30T07:41:09.795Z,85.26
2017-10-30T07:47:13.606Z,84.47
2017-10-30T07:53:18.889Z,84.05
2017-10-30T07:59:22.389Z,83.31
2017-10-30T08:05:26.796Z,83.21
2017-10-30T08:11:30.332Z,83.34
2017-10-30T08:17:33.803Z,82.43
2017-10-30T08:23:37.305Z,82.63
2017-10-30T08:29:41.655Z,81.27
2017-10-30T08:35:45.504Z,80.43
2017-10-30T08:41:49.199Z,80.91
2017-10-30T08:47:52.675Z,81.46
2017-10-30T08:53:56.217Z,81.46
2017-10-30T09:00:00.538Z,79.77
2017-10-30T09:06:04.020Z,80.20
2017-10-30T09:12:07.520Z,79.22
2017-10-30T09:18:10.981Z,78.28
2017-10-30T09:24:14.575Z,77.00
2017-10-30T09:30:18.439Z,75.72
2017-10-30T09:36:21.959Z,76.11
2017-10-30T09:42:26.282Z,75.26
2017-10-30T09:48:29.810Z,74.95
2017-10-30T09:54:33.632Z,74.43
2017-10-30T10:00:37.891Z,74.19
2017-10-30T10:06:41.540Z,74.50
2017-10-30T10:12:45.805Z,73.02
2017-10-30T10:18:49.812Z,74.70
2017-10-30T10:24:53.298Z,75.64
2017-10-30T10:30:56.809Z,75.34
2017-10-30T10:37:00.831Z,73.49
2017-10-30T10:43:04.514Z,73.44
2017-10-30T10:49:09.077Z,72.27
2017-10-30T10:55:12.595Z,70.69
2017-10-30T11:01:16.953Z,71.25
2017-10-30T11:07:20.432Z,70.33
2017-10-30T11:13:24.081Z,69.96
2017-10-30T11:19:27.573Z,66.76
2017-10-30T11:25:31.058Z,65.73
2017-10-30T11:31:34.869Z,66.78
2017-10-30T11:37:38.751Z,65.59
2017-10-30T11:43:42.628Z,64.60
2017-10-30T11:49:48.363Z,65.51
2017-10-30T11:55:51.873Z,63.52
2017-10-30T12:01:55.515Z,64.05
2017-10-30T12:07:58.995Z,64.57
2017-10-30T12:14:03.239Z,62.57
2017-10-30T12:20:06.721Z,64.98
2017-10-30T12:26:11.082Z,67.40
2017-10-30T12:32:15.170Z,69.52
2017-10-30T12:38:20.427Z,71.11
2017-10-30T12:44:25.428Z,68.73
2017-10-30T12:50:29.221Z,64.96
2017-10-30T12:56:32.686Z,63.57
2017-10-30T13:02:36.233Z,64.54
2017-10-30T13:08:39.801Z,62.69
2017-10-30T13:14:43.644Z,61.13
2017-10-30T13:20:47.666Z,58.92
2017-10-30T13:26:51.160Z,61.17
2017-10-30T13:32:55.917Z,59.71
2017-10-30T13:38:59.862Z,59.57
2017-10-30T13:45:03.382Z,60.52
2017-10-30T13:51:06.853Z,61.68
2017-10-30T13:57:10.358Z,61.00
2017-10-30T14:03:14.076Z,60.83
2017-10-30T14:09:18.479Z,60.66
2017-10-30T14:15:22.814Z,60.93
2017-10-30T14:21:26.490Z,62.36
2017-10-30T14:27:30.098Z,63.96
2017-10-30T14:33:33.602Z,63.47
2017-10-30T14:39:37.053Z,64.20
2017-10-30T14:45:40.613Z,65.55
2017-10-30T14:51:44.873Z,68.89
2017-10-30T14:57:49.209Z,69.08
2017-10-30T15:03:53.420Z,70.31
2017-10-30T15:09:56.987Z,69.64
2017-10-30T15:16:00.446Z,70.64
2017-10-30T15:22:03.947Z,71.26
2017-10-30T15:28:07.551Z,72.64
2017-10-30T15:34:11.023Z,74.48
2017-10-30T15:40:16.287Z,76.02
2017-10-30T15:46:19.957Z,76.78
2017-10-30T15:52:23.594Z,77.33
2017-10-30T15:58:28.544Z,78.11
2017-10-30T16:04:32.793Z,78.63
2017-10-30T16:10:36.360Z,78.95
2017-10-30T16:16:39.847Z,78.85
2017-10-30T16:22:44.453Z,79.42
2017-10-30T16:28:48.591Z,79.65
2017-10-30T16:34:52.595Z,80.32
2017-10-30T16:40:56.077Z,81.18
2017-10-30T16:46:59.838Z,82.29
2017-10-30T16:53:03.312Z,82.96
2017-10-30T16:59:07.569Z,83.38
2017-10-30T17:05:11.045Z,83.38
2017-10-30T17:11:14.721Z,83.35
2017-10-30T17:17:18.326Z,82.85
2017-10-30T17:23:21.887Z,82.21
2017-10-30T17:29:25.393Z,81.51
2017-10-30T17:35:29.214Z,80.95
2017-10-30T17:41:33.502Z,80.63
2017-10-30T17:47:36.976Z,80.46
2017-10-30T17:53:40.651Z,79.88
2017-10-30T17:59:45.049Z,79.73
2017-10-30T18:05:49.489Z,79.82
2017-10-30T18:11:53.307Z,79.88
2017-10-30T18:17:57.543Z,80.52
2017-10-30T18:24:01.334Z,81.00
2017-10-30T18:30:04.875Z,81.59
2017-10-30T18:36:08.538Z,82.43
2017-10-30T18:42:12.132Z,82.93
2017-10-30T18:48:16.027Z,82.95
2017-10-30T18:54:20.579Z,83.25
2017-10-30T19:00:24.237Z,83.12
2017-10-30T19:06:27.911Z,83.36
2017-10-30T19:12:31.542Z,83.33
2017-10-30T19:18:35.921Z,83.25
2017-10-30T19:24:39.534Z,83.55
2017-10-30T19:30:43.161Z,83.42
2017-10-30T19:36:47.053Z,83.09
2017-10-30T19:42:50.548Z,82.87
2017-10-30T19:48:55.543Z,83.26
2017-10-30T19:54:59.101Z,83.40
2017-10-30T20:01:02.571Z,83.77
2017-10-30T20:07:11.656Z,84.03
2017-10-30T20:13:15.980Z,84.21
2017-10-30T20:19:20.321Z,84.51
2017-10-30T20:25:24.124Z,84.79
2017-10-30T20:31:28.462Z,85.20
2017-10-30T20:37:31.939Z,85.23
2017-10-30T20:43:35.666Z,85.49
2017-10-30T20:49:39.183Z,86.15
2017-10-30T20:55:42.971Z,86.82
2017-10-30T21:01:46.557Z,87.25
2017-10-30T21:07:50.101Z,87.80
2017-10-30T21:13:53.594Z,87.80
2017-10-30T21:19:58.253Z,87.69
2017-10-30T21:26:01.822Z,88.00
2017-10-30T21:32:05.349Z,87.76
2017-10-30T21:38:08.846Z,87.65
2017-10-30T21:44:13.111Z,87.75
2017-10-30T21:50:17.301Z,87.71
2017-10-30T21:56:20.833Z,87.74
2017-10-30T22:02:25.082Z,88.14
2017-10-30T22:08:28.859Z,88.12
2017-10-30T22:14:32.382Z,88.30
2017-10-30T22:20:35.861Z,88.54
2017-10-30T22:26:39.701Z,88.55
2017-10-30T22:32:43.481Z,88.87
2017-10-30T22:38:47.066Z,88.75
2017-10-30T22:44:51.504Z,88.33
2017-10-30T22:50:55.271Z,87.66
2017-10-30T22:56:58.871Z,87.45
2017-10-30T23:03:02.463Z,86.79
2017-10-30T23:09:06.012Z,86.44
2017-10-30T23:15:09.509Z,86.06
2017-10-30T23:21:14.373Z,86.07
2017-10-30T23:27:18.862Z,86.44
2017-10-30T23:33:22.569Z,87.30
2017-10-30T23:39:26.355Z,87.03
2017-10-30T23:45:29.824Z,86.01
2017-10-30T23:51:33.310Z,85.15
2017-10-30T23:57:36.760Z,84.88
